sensor_id;sensor_type;location;lat;lon;timestamp;pressure;altitude;pressure_sealevel;temperature;humidity
46718;BME280;32448;44.960;-0.698;2023-03-01T05:27:41;101959.75;;;0.49;100.00
46718;BME280;32448;44.960;-0.698;2023-03-01T05:30:15;101939.78;;;0.34;100.00
46718;BME280;32448;44.960;-0.698;2023-03-01T05:32:52;101942.50;;;0.36;100.00
46718;BME280;32448;44.960;-0.698;2023-03-01T05:35:34;101954.94;;;0.42;100.00
46718;BME280;32448;44.960;-0.698;2023-03-01T05:38:06;101926.44;;;0.17;100.00
46718;BME280;32448;44.960;-0.698;2023-03-01T05:40:45;101942.22;;;0.21;100.00
46718;BME280;32448;44.960;-0.698;2023-03-01T05:43:21;101934.81;;;0.14;100.00
46718;BME280;32448;44.960;-0.698;2023-03-01T05:45:49;101930.88;;;0.08;100.00
46718;BME280;32448;44.960;-0.698;2023-03-01T05:48:17;101952.34;;;0.08;100.00
46718;BME280;32448;44.960;-0.698;2023-03-01T05:50:47;101959.41;;;0.11;100.00
46718;BME280;32448;44.960;-0.698;2023-03-01T05:53:17;101957.22;;;0.05;100.00
46718;BME280;32448;44.960;-0.698;2023-03-01T05:55:45;101951.63;;;-0.01;100.00
46718;BME280;32448;44.960;-0.698;2023-03-01T05:58:17;101947.53;;;-0.09;100.00
46718;BME280;32448;44.960;-0.698;2023-03-01T06:00:48;101967.94;;;-0.01;100.00
46718;BME280;32448;44.960;-0.698;2023-03-01T06:03:17;101962.06;;;-0.10;100.00
46718;BME280;32448;44.960;-0.698;2023-03-01T06:05:44;101959.69;;;-0.18;100.00
46718;BME280;32448;44.960;-0.698;2023-03-01T06:08:13;101956.91;;;-0.31;100.00
46718;BME280;32448;44.960;-0.698;2023-03-01T06:10:40;101961.84;;;-0.34;100.00
46718;BME280;32448;44.960;-0.698;2023-03-01T06:13:08;101969.69;;;-0.43;100.00
46718;BME280;32448;44.960;-0.698;2023-03-01T06:15:35;101969.81;;;-0.42;100.00
46718;BME280;32448;44.960;-0.698;2023-03-01T06:18:03;101969.03;;;-0.41;100.00
46718;BME280;32448;44.960;-0.698;2023-03-01T06:20:30;101950.06;;;-0.53;100.00
46718;BME280;32448;44.960;-0.698;2023-03-01T06:22:57;101952.44;;;-0.56;100.00
46718;BME280;32448;44.960;-0.698;2023-03-01T06:25:26;101973.88;;;-0.55;100.00
46718;BME280;32448;44.960;-0.698;2023-03-01T06:27:53;101957.19;;;-0.60;100.00
46718;BME280;32448;44.960;-0.698;2023-03-01T06:30:23;101946.53;;;-0.65;100.00
46718;BME280;32448;44.960;-0.698;2023-03-01T06:32:52;101938.47;;;-0.69;100.00
46718;BME280;32448;44.960;-0.698;2023-03-01T06:35:20;101950.75;;;-0.65;100.00
46718;BME280;32448;44.960;-0.698;2023-03-01T06:37:48;101963.50;;;-0.67;100.00
46718;BME280;32448;44.960;-0.698;2023-03-01T06:40:17;101954.13;;;-0.77;100.00
46718;BME280;32448;44.960;-0.698;2023-03-01T06:42:48;101944.56;;;-0.99;100.00
46718;BME280;32448;44.960;-0.698;2023-03-01T06:45:18;101955.13;;;-1.06;100.00
46718;BME280;32448;44.960;-0.698;2023-03-01T06:47:48;101930.00;;;-1.11;100.00
46718;BME280;32448;44.960;-0.698;2023-03-01T06:50:17;101957.66;;;-0.96;100.00
46718;BME280;32448;44.960;-0.698;2023-03-01T06:52:46;101950.63;;;-1.09;100.00
46718;BME280;32448;44.960;-0.698;2023-03-01T06:55:19;101943.81;;;-1.08;100.00
46718;BME280;32448;44.960;-0.698;2023-03-01T06:57:48;101946.00;;;-1.03;100.00
46718;BME280;32448;44.960;-0.698;2023-03-01T07:00:18;101952.78;;;-0.93;100.00
46718;BME280;32448;44.960;-0.698;2023-03-01T07:02:50;101961.25;;;-0.94;100.00
46718;BME280;32448;44.960;-0.698;2023-03-01T07:05:19;101958.44;;;-0.97;100.00
46718;BME280;32448;44.960;-0.698;2023-03-01T07:07:56;101953.16;;;-0.99;100.00
46718;BME280;32448;44.960;-0.698;2023-03-01T07:10:36;101967.75;;;-0.88;100.00
46718;BME280;32448;44.960;-0.698;2023-03-01T07:13:05;101973.28;;;-0.83;100.00
46718;BME280;32448;44.960;-0.698;2023-03-01T07:15:40;101960.97;;;-0.87;100.00
46718;BME280;32448;44.960;-0.698;2023-03-01T07:18:14;101974.19;;;-0.83;100.00
46718;BME280;32448;44.960;-0.698;2023-03-01T07:20:45;101971.13;;;-0.89;100.00
46718;BME280;32448;44.960;-0.698;2023-03-01T07:23:13;101976.50;;;-0.86;100.00
46718;BME280;32448;44.960;-0.698;2023-03-01T07:25:42;101981.25;;;-0.80;100.00
46718;BME280;32448;44.960;-0.698;2023-03-01T07:28:10;101977.38;;;-0.75;100.00
46718;BME280;32448;44.960;-0.698;2023-03-01T07:30:42;101973.25;;;-0.73;100.00
46718;BME280;32448;44.960;-0.698;2023-03-01T07:33:14;101978.91;;;-0.67;100.00
46718;BME280;32448;44.960;-0.698;2023-03-01T07:35:45;101971.69;;;-0.61;100.00
46718;BME280;32448;44.960;-0.698;2023-03-01T07:38:17;101972.72;;;-0.59;100.00
46718;BME280;32448;44.960;-0.698;2023-03-01T07:40:53;101974.72;;;-0.55;100.00
46718;BME280;32448;44.960;-0.698;2023-03-01T07:43:29;101993.81;;;-0.41;100.00
46718;BME280;32448;44.960;-0.698;2023-03-01T07:46:01;101971.47;;;-0.42;100.00
46718;BME280;32448;44.960;-0.698;2023-03-01T07:48:31;101970.53;;;-0.32;100.00
46718;BME280;32448;44.960;-0.698;2023-03-01T07:51:02;101987.16;;;-0.17;100.00
46718;BME280;32448;44.960;-0.698;2023-03-01T07:53:41;101981.63;;;-0.12;100.00
46718;BME280;32448;44.960;-0.698;2023-03-01T07:56:16;101985.19;;;-0.10;100.00
46718;BME280;32448;44.960;-0.698;2023-03-01T07:58:59;101967.56;;;-0.05;100.00
46718;BME280;32448;44.960;-0.698;2023-03-01T08:01:29;101983.97;;;0.07;100.00
46718;BME280;32448;44.960;-0.698;2023-03-01T08:04:20;101984.91;;;0.19;100.00
46718;BME280;32448;44.960;-0.698;2023-03-01T08:07:00;101955.09;;;0.21;100.00
46718;BME280;32448;44.960;-0.698;2023-03-01T08:09:35;101971.44;;;0.33;100.00
46718;BME280;32448;44.960;-0.698;2023-03-01T08:12:07;101974.47;;;0.40;100.00
46718;BME280;32448;44.960;-0.698;2023-03-01T08:14:39;101898.56;;;0.11;100.00
46718;BME280;32448;44.960;-0.698;2023-03-01T08:17:09;101954.38;;;0.46;100.00
46718;BME280;32448;44.960;-0.698;2023-03-01T08:19:37;101960.41;;;0.46;100.00
46718;BME280;32448;44.960;-0.698;2023-03-01T08:22:05;101967.81;;;0.53;100.00
46718;BME280;32448;44.960;-0.698;2023-03-01T08:24:34;101959.78;;;0.60;100.00
46718;BME280;32448;44.960;-0.698;2023-03-01T08:29:56;101935.06;;;0.51;100.00
46718;BME280;32448;44.960;-0.698;2023-03-01T08:32:45;101956.25;;;0.82;100.00
46718;BME280;32448;44.960;-0.698;2023-03-01T08:35:19;101954.34;;;0.91;100.00
46718;BME280;32448;44.960;-0.698;2023-03-01T08:37:52;101934.53;;;0.90;100.00
46718;BME280;32448;44.960;-0.698;2023-03-01T08:40:27;101957.06;;;1.04;100.00
46718;BME280;32448;44.960;-0.698;2023-03-01T08:43:10;101961.88;;;1.11;100.00
46718;BME280;32448;44.960;-0.698;2023-03-01T08:45:48;101944.19;;;1.16;100.00
46718;BME280;32448;44.960;-0.698;2023-03-01T08:48:24;101950.78;;;1.24;100.00
46718;BME280;32448;44.960;-0.698;2023-03-01T08:51:10;101917.19;;;1.10;100.00
46718;BME280;32448;44.960;-0.698;2023-03-01T08:53:42;101917.78;;;1.30;100.00
46718;BME280;32448;44.960;-0.698;2023-03-01T08:56:16;101946.28;;;1.56;100.00
46718;BME280;32448;44.960;-0.698;2023-03-01T08:58:50;101926.69;;;1.46;100.00
46718;BME280;32448;44.960;-0.698;2023-03-01T09:01:19;101927.94;;;1.52;100.00
46718;BME280;32448;44.960;-0.698;2023-03-01T09:03:47;101935.28;;;1.70;100.00
46718;BME280;32448;44.960;-0.698;2023-03-01T09:06:15;101946.56;;;1.84;100.00
46718;BME280;32448;44.960;-0.698;2023-03-01T09:08:46;101939.84;;;1.86;100.00
46718;BME280;32448;44.960;-0.698;2023-03-01T09:11:17;101947.09;;;1.92;100.00
46718;BME280;32448;44.960;-0.698;2023-03-01T09:13:46;101919.38;;;1.76;100.00
46718;BME280;32448;44.960;-0.698;2023-03-01T09:16:18;101931.41;;;1.89;100.00
46718;BME280;32448;44.960;-0.698;2023-03-01T09:18:51;101930.31;;;1.85;100.00
46718;BME280;32448;44.960;-0.698;2023-03-01T09:21:22;101926.66;;;2.06;100.00
46718;BME280;32448;44.960;-0.698;2023-03-01T09:24:14;101929.19;;;2.18;100.00
46718;BME280;32448;44.960;-0.698;2023-03-01T09:26:42;101898.97;;;2.04;100.00
46718;BME280;32448;44.960;-0.698;2023-03-01T09:29:17;101910.53;;;2.22;100.00
46718;BME280;32448;44.960;-0.698;2023-03-01T09:31:48;101869.19;;;1.96;100.00
46718;BME280;32448;44.960;-0.698;2023-03-01T09:34:17;101905.88;;;2.16;100.00
46718;BME280;32448;44.960;-0.698;2023-03-01T09:36:51;101908.28;;;2.27;100.00
46718;BME280;32448;44.960;-0.698;2023-03-01T09:39:20;101915.84;;;2.37;100.00
46718;BME280;32448;44.960;-0.698;2023-03-01T09:42:02;101908.44;;;2.41;100.00
46718;BME280;32448;44.960;-0.698;2023-03-01T09:44:50;101914.44;;;2.53;100.00
46718;BME280;32448;44.960;-0.698;2023-03-01T09:47:41;101893.50;;;2.62;100.00
46718;BME280;32448;44.960;-0.698;2023-03-01T09:50:16;101868.97;;;2.69;100.00
46718;BME280;32448;44.960;-0.698;2023-03-01T09:53:12;101896.41;;;2.93;100.00
46718;BME280;32448;44.960;-0.698;2023-03-01T09:56:01;101901.16;;;3.00;100.00
46718;BME280;32448;44.960;-0.698;2023-03-01T09:58:48;101821.22;;;2.49;100.00
46718;BME280;32448;44.960;-0.698;2023-03-01T10:01:28;101893.13;;;2.96;100.00
46718;BME280;32448;44.960;-0.698;2023-03-01T10:10:45;101844.06;;;2.96;100.00
46718;BME280;32448;44.960;-0.698;2023-03-01T10:13:37;101850.94;;;3.08;100.00
46718;BME280;32448;44.960;-0.698;2023-03-01T10:16:21;101867.25;;;3.35;100.00
46718;BME280;32448;44.960;-0.698;2023-03-01T10:18:58;101875.41;;;3.41;100.00
46718;BME280;32448;44.960;-0.698;2023-03-01T10:21:28;101870.72;;;3.49;100.00
46718;BME280;32448;44.960;-0.698;2023-03-01T10:24:12;101857.22;;;3.40;100.00
46718;BME280;32448;44.960;-0.698;2023-03-01T10:26:51;101790.91;;;3.12;100.00
46718;BME280;32448;44.960;-0.698;2023-03-01T10:29:26;101849.25;;;3.50;100.00
46718;BME280;32448;44.960;-0.698;2023-03-01T10:32:05;101841.78;;;3.54;100.00
46718;BME280;32448;44.960;-0.698;2023-03-01T10:34:35;101827.47;;;3.46;100.00
46718;BME280;32448;44.960;-0.698;2023-03-01T10:37:30;101829.34;;;3.62;100.00
46718;BME280;32448;44.960;-0.698;2023-03-01T10:42:48;101835.34;;;3.76;100.00
46718;BME280;32448;44.960;-0.698;2023-03-01T10:48:16;101852.09;;;3.95;100.00
46718;BME280;32448;44.960;-0.698;2023-03-01T10:53:58;101847.25;;;4.29;100.00
46718;BME280;32448;44.960;-0.698;2023-03-01T10:56:28;101849.81;;;4.44;100.00
46718;BME280;32448;44.960;-0.698;2023-03-01T10:59:05;101835.88;;;4.42;92.13
46718;BME280;32448;44.960;-0.698;2023-03-01T11:01:41;101840.81;;;4.37;95.71
46718;BME280;32448;44.960;-0.698;2023-03-01T11:04:17;101831.53;;;4.41;100.00
46718;BME280;32448;44.960;-0.698;2023-03-01T11:07:11;101834.13;;;4.41;93.02
46718;BME280;32448;44.960;-0.698;2023-03-01T11:09:46;101789.56;;;4.47;98.55
46718;BME280;32448;44.960;-0.698;2023-03-01T11:12:24;101831.66;;;4.88;100.00
46718;BME280;32448;44.960;-0.698;2023-03-01T11:15:33;101790.63;;;4.65;100.00
46718;BME280;32448;44.960;-0.698;2023-03-01T11:18:40;101812.41;;;4.83;100.00
46718;BME280;32448;44.960;-0.698;2023-03-01T11:21:27;101815.19;;;5.02;100.00
46718;BME280;32448;44.960;-0.698;2023-03-01T11:24:15;101800.28;;;4.98;98.43
46718;BME280;32448;44.960;-0.698;2023-03-01T11:26:54;101823.44;;;5.26;100.00
46718;BME280;32448;44.960;-0.698;2023-03-01T11:29:32;101789.06;;;5.14;94.57
46718;BME280;32448;44.960;-0.698;2023-03-01T11:32:19;101809.28;;;5.36;100.00
46718;BME280;32448;44.960;-0.698;2023-03-01T11:35:27;101826.31;;;5.47;100.00
46718;BME280;32448;44.960;-0.698;2023-03-01T11:38:09;101796.81;;;5.29;92.78
46718;BME280;32448;44.960;-0.698;2023-03-01T11:41:16;101810.19;;;5.36;100.00
46718;BME280;32448;44.960;-0.698;2023-03-01T11:49:49;101794.72;;;5.70;97.75
46718;BME280;32448;44.960;-0.698;2023-03-01T11:52:42;101776.66;;;5.72;98.23
46718;BME280;32448;44.960;-0.698;2023-03-01T11:55:43;101767.25;;;5.90;94.64
46718;BME280;32448;44.960;-0.698;2023-03-01T12:44:32;101683.44;;;6.44;94.42
46718;BME280;32448;44.960;-0.698;2023-03-01T12:50:54;101670.31;;;6.41;93.97
46718;BME280;32448;44.960;-0.698;2023-03-01T12:53:36;101693.81;;;6.80;98.39
46718;BME280;32448;44.960;-0.698;2023-03-01T12:56:23;101643.53;;;6.60;100.00
46718;BME280;32448;44.960;-0.698;2023-03-01T12:59:36;101691.84;;;6.93;96.84
46718;BME280;32448;44.960;-0.698;2023-03-01T13:02:36;101687.22;;;7.06;98.36
46718;BME280;32448;44.960;-0.698;2023-03-01T13:05:26;101694.97;;;6.86;87.34
46718;BME280;32448;44.960;-0.698;2023-03-01T13:29:00;101675.84;;;6.67;88.82
46718;BME280;32448;44.960;-0.698;2023-03-01T13:34:01;101670.31;;;6.59;95.03
46718;BME280;32448;44.960;-0.698;2023-03-01T13:36:45;101661.31;;;6.52;92.04
46718;BME280;32448;44.960;-0.698;2023-03-01T13:39:30;101655.06;;;6.67;94.98
46718;BME280;32448;44.960;-0.698;2023-03-01T13:42:02;101647.22;;;6.65;100.00
46718;BME280;32448;44.960;-0.698;2023-03-01T13:44:37;101658.06;;;6.93;94.75
46718;BME280;32448;44.960;-0.698;2023-03-01T13:47:16;101627.00;;;6.77;86.93
46718;BME280;32448;44.960;-0.698;2023-03-01T13:52:53;101641.38;;;6.88;96.42
46718;BME280;32448;44.960;-0.698;2023-03-01T13:55:44;101634.53;;;7.10;95.63
46718;BME280;32448;44.960;-0.698;2023-03-01T13:58:19;101635.25;;;7.06;84.63
46718;BME280;32448;44.960;-0.698;2023-03-01T14:01:04;101637.41;;;6.97;85.68
46718;BME280;32448;44.960;-0.698;2023-03-01T14:03:40;101624.66;;;6.64;85.54
46718;BME280;32448;44.960;-0.698;2023-03-01T14:06:18;101629.75;;;6.80;91.20
46718;BME280;32448;44.960;-0.698;2023-03-01T14:08:50;101615.22;;;6.85;91.94
46718;BME280;32448;44.960;-0.698;2023-03-01T14:11:58;101629.94;;;7.23;93.96
46718;BME280;32448;44.960;-0.698;2023-03-01T14:17:35;101625.97;;;7.31;93.28
46718;BME280;32448;44.960;-0.698;2023-03-01T14:20:21;101612.34;;;7.37;89.95
46718;BME280;32448;44.960;-0.698;2023-03-01T14:22:54;101610.06;;;7.45;91.86
46718;BME280;32448;44.960;-0.698;2023-03-01T14:25:32;101604.28;;;7.52;86.35
46718;BME280;32448;44.960;-0.698;2023-03-01T14:28:28;101613.00;;;7.52;85.26
46718;BME280;32448;44.960;-0.698;2023-03-01T14:31:00;101603.91;;;7.43;82.97
46718;BME280;32448;44.960;-0.698;2023-03-01T14:33:34;101597.81;;;7.42;86.06
46718;BME280;32448;44.960;-0.698;2023-03-01T14:36:26;101582.22;;;7.42;88.48
46718;BME280;32448;44.960;-0.698;2023-03-01T14:38:58;101600.06;;;7.54;86.82
46718;BME280;32448;44.960;-0.698;2023-03-01T14:41:35;101582.78;;;7.35;87.88
46718;BME280;32448;44.960;-0.698;2023-03-01T14:44:11;101596.56;;;7.53;91.63
46718;BME280;32448;44.960;-0.698;2023-03-01T14:46:43;101603.03;;;7.42;79.59
46718;BME280;32448;44.960;-0.698;2023-03-01T14:49:19;101603.31;;;7.29;80.14
46718;BME280;32448;44.960;-0.698;2023-03-01T14:52:02;101582.19;;;7.21;86.05
46718;BME280;32448;44.960;-0.698;2023-03-01T14:57:42;101593.47;;;7.22;85.86
46718;BME280;32448;44.960;-0.698;2023-03-01T15:00:22;101578.53;;;7.16;86.52
46718;BME280;32448;44.960;-0.698;2023-03-01T15:03:00;101586.63;;;7.24;89.28
46718;BME280;32448;44.960;-0.698;2023-03-01T15:05:34;101571.72;;;7.20;91.26
46718;BME280;32448;44.960;-0.698;2023-03-01T15:08:04;101565.47;;;7.36;84.38
46718;BME280;32448;44.960;-0.698;2023-03-01T15:10:35;101562.94;;;7.37;84.11
46718;BME280;32448;44.960;-0.698;2023-03-01T15:13:12;101579.81;;;7.47;93.67
46718;BME280;32448;44.960;-0.698;2023-03-01T15:15:43;101576.84;;;7.38;87.04
46718;BME280;32448;44.960;-0.698;2023-03-01T15:18:22;101524.00;;;7.18;89.41
46718;BME280;32448;44.960;-0.698;2023-03-01T15:21:10;101571.56;;;7.36;84.07
46718;BME280;32448;44.960;-0.698;2023-03-01T15:23:50;101543.56;;;7.10;86.93
46718;BME280;32448;44.960;-0.698;2023-03-01T15:26:29;101580.56;;;7.23;84.34
46718;BME280;32448;44.960;-0.698;2023-03-01T15:29:00;101576.38;;;7.27;91.98
46718;BME280;32448;44.960;-0.698;2023-03-01T15:31:33;101567.19;;;7.35;89.31
46718;BME280;32448;44.960;-0.698;2023-03-01T15:34:21;101576.84;;;7.38;83.97
46718;BME280;32448;44.960;-0.698;2023-03-01T15:37:35;101572.09;;;7.29;86.08
46718;BME280;32448;44.960;-0.698;2023-03-01T15:39:57;101563.63;;;7.33;79.47
46718;BME280;32448;44.960;-0.698;2023-03-01T15:45:31;101514.72;;;7.04;88.03
46718;BME280;32448;44.960;-0.698;2023-03-01T15:48:18;101555.38;;;7.43;80.40
46718;BME280;32448;44.960;-0.698;2023-03-01T15:50:55;101537.63;;;7.33;83.60
46718;BME280;32448;44.960;-0.698;2023-03-01T15:53:34;101551.19;;;7.26;85.65
46718;BME280;32448;44.960;-0.698;2023-03-01T15:56:19;101556.19;;;7.21;87.71
46718;BME280;32448;44.960;-0.698;2023-03-01T15:58:49;101545.72;;;7.20;87.59
46718;BME280;32448;44.960;-0.698;2023-03-01T16:01:29;101519.63;;;6.98;84.14
46718;BME280;32448;44.960;-0.698;2023-03-01T16:03:57;101544.19;;;7.04;88.49
46718;BME280;32448;44.960;-0.698;2023-03-01T16:06:25;101558.91;;;7.04;83.63
46718;BME280;32448;44.960;-0.698;2023-03-01T16:08:53;101547.00;;;6.89;84.93
46718;BME280;32448;44.960;-0.698;2023-03-01T16:11:21;101546.50;;;6.98;86.20
46718;BME280;32448;44.960;-0.698;2023-03-01T16:13:49;101548.72;;;6.89;87.44
46718;BME280;32448;44.960;-0.698;2023-03-01T16:16:16;101533.22;;;6.71;87.83
46718;BME280;32448;44.960;-0.698;2023-03-01T16:18:47;101556.16;;;6.81;85.92
46718;BME280;32448;44.960;-0.698;2023-03-01T16:21:19;101528.34;;;6.79;86.07
46718;BME280;32448;44.960;-0.698;2023-03-01T16:23:47;101544.88;;;6.81;91.42
46718;BME280;32448;44.960;-0.698;2023-03-01T16:26:15;101534.56;;;6.82;91.70
46718;BME280;32448;44.960;-0.698;2023-03-01T16:28:46;101543.50;;;6.89;90.62
46718;BME280;32448;44.960;-0.698;2023-03-01T16:31:19;101538.16;;;6.86;87.14
46718;BME280;32448;44.960;-0.698;2023-03-01T16:33:47;101507.22;;;6.71;85.61
46718;BME280;32448;44.960;-0.698;2023-03-01T16:36:18;101528.25;;;6.77;90.39
46718;BME280;32448;44.960;-0.698;2023-03-01T16:38:47;101539.53;;;6.78;89.15
46718;BME280;32448;44.960;-0.698;2023-03-01T16:41:21;101540.50;;;6.80;90.97
46718;BME280;32448;44.960;-0.698;2023-03-01T16:43:50;101541.47;;;6.82;94.25
46718;BME280;32448;44.960;-0.698;2023-03-01T16:46:23;101530.94;;;6.79;91.29
46718;BME280;32448;44.960;-0.698;2023-03-01T16:48:55;101520.47;;;6.58;98.89
46718;BME280;32448;44.960;-0.698;2023-03-01T16:51:23;101553.03;;;6.69;96.94
46718;BME280;32448;44.960;-0.698;2023-03-01T16:53:54;101544.41;;;6.70;100.00
46718;BME280;32448;44.960;-0.698;2023-03-01T16:56:23;101557.25;;;6.67;96.76
46718;BME280;32448;44.960;-0.698;2023-03-01T16:58:55;101562.25;;;6.63;98.42
46718;BME280;32448;44.960;-0.698;2023-03-01T17:01:23;101559.03;;;6.49;96.67
46718;BME280;32448;44.960;-0.698;2023-03-01T17:03:52;101566.19;;;6.35;96.58
46718;BME280;32448;44.960;-0.698;2023-03-01T17:06:20;101573.16;;;6.36;95.44
46718;BME280;32448;44.960;-0.698;2023-03-01T17:08:49;101552.78;;;6.26;97.96
46718;BME280;32448;44.960;-0.698;2023-03-01T17:11:18;101555.28;;;6.25;97.51
46718;BME280;32448;44.960;-0.698;2023-03-01T17:13:47;101562.94;;;6.21;100.00
46718;BME280;32448;44.960;-0.698;2023-03-01T17:16:17;101559.09;;;6.13;99.32
46718;BME280;32448;44.960;-0.698;2023-03-01T17:18:46;101555.56;;;5.94;100.00
46718;BME280;32448;44.960;-0.698;2023-03-01T17:21:14;101573.69;;;6.11;100.00
46718;BME280;32448;44.960;-0.698;2023-03-01T17:23:43;101582.50;;;5.97;100.00
46718;BME280;32448;44.960;-0.698;2023-03-01T17:26:12;101577.22;;;5.78;100.00
46718;BME280;32448;44.960;-0.698;2023-03-01T17:28:39;101570.69;;;5.68;100.00
46718;BME280;32448;44.960;-0.698;2023-03-01T17:31:07;101579.66;;;5.57;100.00
46718;BME280;32448;44.960;-0.698;2023-03-01T17:33:48;101513.78;;;5.02;100.00
46718;BME280;32448;44.960;-0.698;2023-03-01T17:36:28;101547.28;;;5.15;100.00
46718;BME280;32448;44.960;-0.698;2023-03-01T17:39:13;101577.72;;;5.19;100.00
46718;BME280;32448;44.960;-0.698;2023-03-01T17:41:42;101602.97;;;5.23;100.00
46718;BME280;32448;44.960;-0.698;2023-03-01T17:44:14;101560.56;;;4.89;100.00
46718;BME280;32448;44.960;-0.698;2023-03-01T17:46:43;101592.81;;;4.94;100.00
46718;BME280;32448;44.960;-0.698;2023-03-01T17:49:18;101583.41;;;4.80;100.00
46718;BME280;32448;44.960;-0.698;2023-03-01T17:51:48;101593.38;;;4.72;100.00
46718;BME280;32448;44.960;-0.698;2023-03-01T17:54:16;101558.94;;;4.42;100.00
46718;BME280;32448;44.960;-0.698;2023-03-01T17:56:43;101607.34;;;4.59;100.00
46718;BME280;32448;44.960;-0.698;2023-03-01T17:59:12;101578.16;;;4.31;100.00
46718;BME280;32448;44.960;-0.698;2023-03-01T18:01:41;101593.47;;;4.26;100.00
46718;BME280;32448;44.960;-0.698;2023-03-01T18:04:10;101619.44;;;4.28;100.00
46718;BME280;32448;44.960;-0.698;2023-03-01T18:06:40;101615.34;;;4.17;100.00
46718;BME280;32448;44.960;-0.698;2023-03-01T18:09:07;101611.50;;;4.10;100.00
46718;BME280;32448;44.960;-0.698;2023-03-01T18:11:35;101615.13;;;3.97;100.00
46718;BME280;32448;44.960;-0.698;2023-03-01T18:14:03;101611.19;;;3.89;100.00
46718;BME280;32448;44.960;-0.698;2023-03-01T18:16:32;101618.53;;;3.82;100.00
46718;BME280;32448;44.960;-0.698;2023-03-01T18:19:02;101606.56;;;3.69;100.00
46718;BME280;32448;44.960;-0.698;2023-03-01T18:21:32;101637.22;;;3.78;100.00
46718;BME280;32448;44.960;-0.698;2023-03-01T18:24:00;101615.41;;;3.58;100.00
46718;BME280;32448;44.960;-0.698;2023-03-01T18:26:33;101617.38;;;3.47;100.00
46718;BME280;32448;44.960;-0.698;2023-03-01T18:29:02;101581.69;;;3.12;100.00
46718;BME280;32448;44.960;-0.698;2023-03-01T18:31:31;101628.47;;;3.32;100.00
46718;BME280;32448;44.960;-0.698;2023-03-01T18:33:59;101644.81;;;3.31;100.00
46718;BME280;32448;44.960;-0.698;2023-03-01T18:36:31;101645.22;;;3.23;100.00
46718;BME280;32448;44.960;-0.698;2023-03-01T18:39:10;101642.00;;;3.13;100.00
46718;BME280;32448;44.960;-0.698;2023-03-01T18:41:37;101642.53;;;3.07;100.00
46718;BME280;32448;44.960;-0.698;2023-03-01T18:44:06;101647.28;;;3.01;100.00
46718;BME280;32448;44.960;-0.698;2023-03-01T18:46:41;101600.44;;;2.67;100.00
46718;BME280;32448;44.960;-0.698;2023-03-01T18:49:14;101653.13;;;2.84;100.00
46718;BME280;32448;44.960;-0.698;2023-03-01T18:52:17;101654.53;;;2.79;100.00
46718;BME280;32448;44.960;-0.698;2023-03-01T18:54:56;101608.44;;;2.44;100.00
46718;BME280;32448;44.960;-0.698;2023-03-01T18:57:30;101657.22;;;2.67;100.00
46718;BME280;32448;44.960;-0.698;2023-03-01T19:00:05;101655.88;;;2.59;100.00
46718;BME280;32448;44.960;-0.698;2023-03-01T19:02:35;101638.25;;;2.39;100.00
46718;BME280;32448;44.960;-0.698;2023-03-01T19:05:04;101649.66;;;2.42;100.00
46718;BME280;32448;44.960;-0.698;2023-03-01T19:08:01;101668.09;;;2.48;100.00
46718;BME280;32448;44.960;-0.698;2023-03-01T19:10:35;101669.56;;;2.45;100.00
46718;BME280;32448;44.960;-0.698;2023-03-01T19:13:09;101649.34;;;2.25;100.00
46718;BME280;32448;44.960;-0.698;2023-03-01T19:15:39;101673.16;;;2.34;100.00
46718;BME280;32448;44.960;-0.698;2023-03-01T19:18:22;101654.13;;;2.05;100.00
46718;BME280;32448;44.960;-0.698;2023-03-01T19:21:18;101636.47;;;1.85;100.00
46718;BME280;32448;44.960;-0.698;2023-03-01T19:23:52;101664.44;;;1.92;100.00
46718;BME280;32448;44.960;-0.698;2023-03-01T19:26:35;101617.28;;;1.55;100.00
46718;BME280;32448;44.960;-0.698;2023-03-01T19:29:17;101681.69;;;1.93;100.00
46718;BME280;32448;44.960;-0.698;2023-03-01T19:31:51;101667.19;;;1.82;100.00
46718;BME280;32448;44.960;-0.698;2023-03-01T19:34:24;101666.81;;;1.76;100.00
46718;BME280;32448;44.960;-0.698;2023-03-01T19:37:29;101676.22;;;1.75;100.00
46718;BME280;32448;44.960;-0.698;2023-03-01T19:40:25;101647.81;;;1.49;100.00
46718;BME280;32448;44.960;-0.698;2023-03-01T19:42:53;101655.53;;;1.49;100.00
46718;BME280;32448;44.960;-0.698;2023-03-01T19:45:38;101661.09;;;1.55;100.00
46718;BME280;32448;44.960;-0.698;2023-03-01T19:48:31;101647.41;;;1.43;100.00
46718;BME280;32448;44.960;-0.698;2023-03-01T19:51:09;101677.44;;;1.56;100.00
46718;BME280;32448;44.960;-0.698;2023-03-01T19:53:42;101672.78;;;1.50;100.00
46718;BME280;32448;44.960;-0.698;2023-03-01T19:56:15;101662.88;;;1.43;100.00
46718;BME280;32448;44.960;-0.698;2023-03-01T19:58:47;101663.84;;;1.45;100.00
46718;BME280;32448;44.960;-0.698;2023-03-01T20:01:20;101620.19;;;1.22;100.00
46718;BME280;32448;44.960;-0.698;2023-03-01T20:03:47;101673.50;;;1.61;100.00
46718;BME280;32448;44.960;-0.698;2023-03-01T20:06:16;101665.28;;;1.53;100.00
46718;BME280;32448;44.960;-0.698;2023-03-01T20:08:57;101677.38;;;1.67;100.00
46718;BME280;32448;44.960;-0.698;2023-03-01T20:11:48;101617.75;;;1.36;100.00
46718;BME280;32448;44.960;-0.698;2023-03-01T20:14:38;101671.03;;;1.62;100.00
46718;BME280;32448;44.960;-0.698;2023-03-01T20:17:11;101667.34;;;1.59;100.00
46718;BME280;32448;44.960;-0.698;2023-03-01T20:19:39;101648.38;;;1.45;100.00
46718;BME280;32448;44.960;-0.698;2023-03-01T20:22:06;101658.13;;;1.49;100.00
46718;BME280;32448;44.960;-0.698;2023-03-01T20:24:37;101663.06;;;1.46;100.00
46718;BME280;32448;44.960;-0.698;2023-03-01T20:27:07;101658.50;;;1.42;100.00
46718;BME280;32448;44.960;-0.698;2023-03-01T20:29:34;101675.94;;;1.46;100.00
46718;BME280;32448;44.960;-0.698;2023-03-01T20:32:02;101673.84;;;1.40;100.00
46718;BME280;32448;44.960;-0.698;2023-03-01T20:34:29;101653.13;;;1.39;100.00
46718;BME280;32448;44.960;-0.698;2023-03-01T20:36:57;101668.91;;;1.43;100.00
46718;BME280;32448;44.960;-0.698;2023-03-01T20:39:25;101672.63;;;1.35;100.00